Latest Weather Observations for Tunnack

IDT60801

Issued at 3:31 am EST Saturday 30 April 2016 (issued every 30 minutes, with the page automatically refreshed every 10 minutes)

About weather observations | Map of weather stations | Latest weather observations for TAS | Other Formats
Station Details ID: 094195 Name: TUNNACK FIRE STATION Lat: -42.45 Lon: 147.46 Height: 461.5 m
Data from the previous 72 hours. | See also: Recent months at Tunnack
Date/Time
EST
Temp
°C
App
Temp
°C
Dew
Point
Rel
Hum
%
Delta-T
°C
Wind Press
QNH
hPa
Press
MSL
hPa
Rain
since 9 am
mm
Dir
 
Spd
km/h
Gust
km/h
Spd
kts
Gust
kts
30/03:30am 9.9 7.7 9.3 96 0.3 NNE 11 17 6 9 1011.4 1011.5 2.4
30/03:00am 10.5 7.7 10.0 97 0.3 N 15 20 8 11 1011.3 1011.4 2.4
30/02:30am 10.2 8.1 9.6 96 0.3 NNE 11 13 6 7 1011.3 1011.4 2.4
30/02:00am 10.6 8.2 10.0 96 0.3 N 13 17 7 9 1011.5 1011.6 2.4
30/01:30am 10.8 9.2 10.2 96 0.3 N 9 13 5 7 1011.4 1011.5 2.4
30/01:00am 11.4 9.6 10.8 96 0.3 N 11 13 6 7 1011.1 1011.2 2.4
30/12:30am 11.3 9.8 10.4 94 0.5 N 9 13 5 7 1011.1 1011.2 2.4
30/12:00am 12.3 10.7 11.4 94 0.5 NW 11 15 6 8 1011.2 1011.3 2.4
 
Date/Time
EST
Temp
°C
App
Temp
°C
Dew
Point
Rel
Hum
%
Delta-T
°C
Wind Press
QNH
hPa
Press
MSL
hPa
Rain
since 9 am
mm
Dir
 
Spd
km/h
Gust
km/h
Spd
kts
Gust
kts
29/11:30pm 12.5 9.8 11.6 94 0.5 N 17 24 9 13 1011.2 1011.3 2.4
29/11:00pm 12.2 8.8 11.4 95 0.4 N 20 26 11 14 1011.2 1011.3 2.4
29/10:30pm 12.4 9.3 11.5 94 0.5 N 19 24 10 13 1011.4 1011.5 2.4
29/10:00pm 12.3 8.6 11.5 95 0.4 N 22 33 12 18 1011.4 1011.5 2.4
29/09:30pm 12.6 8.5 11.5 93 0.6 N 24 33 13 18 1011.1 1011.2 2.4
29/09:00pm 12.8 9.2 11.7 93 0.6 N 22 30 12 16 1011.2 1011.3 2.4
29/08:30pm 12.9 10.3 12.0 94 0.5 N 17 26 9 14 1010.4 1010.4 2.4
29/08:00pm 12.9 9.3 11.8 93 0.6 N 22 32 12 17 1009.7 1009.8 2.4
29/07:30pm 13.0 9.0 11.9 93 0.6 N 24 33 13 18 1009.7 1009.8 2.4
29/07:00pm 13.2 8.9 11.9 92 0.7 N 26 37 14 20 1010.3 1010.3 2.2
29/06:30pm 13.1 8.3 11.7 91 0.8 N 28 41 15 22 1010.3 1010.3 2.2
29/06:00pm 13.1 7.9 11.7 91 0.8 N 30 41 16 22 1010.4 1010.4 2.2
29/05:30pm 13.4 8.7 12.0 91 0.8 N 28 39 15 21 1010.2 1010.2 1.6
29/05:12pm 13.5 7.5 12.2 92 0.7 N 35 54 19 29 1010.4 1010.4 0.8
29/05:00pm 13.7 6.3 12.6 93 0.6 N 43 54 23 29 1010.0 1010.1 0.6
29/04:30pm 13.7 6.7 12.6 93 0.6 N 41 56 22 30 1009.8 1009.9 0.4
29/04:00pm 14.5 7.1 12.5 88 1.1 N 43 63 23 34 1009.9 1010.0 0.0
29/03:45pm 14.6 7.2 12.6 88 1.1 N 43 61 23 33 1010.2 1010.2 0.0
29/03:30pm 14.7 6.4 12.7 88 1.1 N 48 59 26 32 1010.0 1010.1 0.0
29/03:10pm 14.8 8.2 12.7 87 1.2 N 39 57 21 31 1010.3 1010.3 0.0
29/03:00pm 15.0 8.5 12.9 87 1.2 N 39 56 21 30 1010.6 1010.6 0.0
29/02:55pm 15.1 8.9 12.8 86 1.3 N 37 56 20 30 1010.6 1010.6 0.0
29/02:30pm 15.4 10.2 12.7 84 1.5 N 32 41 17 22 1010.7 1010.7 0.0
29/02:22pm 16.1 10.5 12.1 77 2.2 N 33 52 18 28 1010.8 1010.8 0.0
29/02:00pm 16.7 10.2 11.8 73 2.7 N 37 52 20 28 1010.7 1010.7 0.0
29/01:30pm 16.9 10.5 12.0 73 2.7 N 37 48 20 26 1011.1 1011.2 0.0
29/01:00pm 17.3 11.6 11.8 70 3.1 N 33 46 18 25 1011.4 1011.5 0.0
29/12:31pm 18.5 11.7 11.8 65 3.8 N 39 57 21 31 1011.8 1011.9 0.0
29/12:30pm 18.6 11.4 11.9 65 3.8 N 41 57 22 31 1011.8 1011.9 0.0
29/12:24pm 18.6 11.8 11.9 65 3.8 N 39 57 21 31 1012.1 1012.2 0.0
29/12:00pm 19.0 13.1 12.5 66 3.7 N 35 52 19 28 1012.7 1012.7 0.0
29/11:49am 18.6 13.9 12.1 66 3.7 N 28 46 15 25 1012.9 1012.9 0.0
29/11:30am 19.0 14.0 12.3 65 3.8 N 30 44 16 24 1013.1 1013.2 0.0
29/11:02am 18.3 12.9 12.3 68 3.4 N 32 52 17 28 1013.4 1013.5 0.0
29/11:00am 17.3 12.1 11.6 69 3.2 N 30 44 16 24 1013.4 1013.5 0.0
29/10:30am 16.0 11.6 11.6 75 2.4 N 26 35 14 19 1013.8 1013.9 0.0
29/10:00am 16.4 13.2 11.8 74 2.6 N 20 32 11 17 1014.1 1014.2 0.0
29/09:30am 15.7 12.2 12.1 79 2.0 NNE 22 26 12 14 1014.8 1014.9 0.0
29/09:00am 13.6 10.8 11.5 87 1.1 NNE 17 20 9 11 1015.4 1015.5 0.6
29/08:30am 13.3 11.2 11.2 87 1.1 NE 13 19 7 10 1015.7 1015.8 0.6
29/08:00am 13.2 10.4 11.4 89 1.0 NNE 17 24 9 13 1015.6 1015.7 0.6
29/07:30am 12.5 10.4 11.2 92 0.7 NE 13 19 7 10 1015.5 1015.6 0.6
29/07:00am 12.3 10.2 11.0 92 0.7 NE 13 19 7 10 1015.7 1015.8 0.6
29/06:30am 12.5 10.0 11.2 92 0.7 NNE 15 19 8 10 1015.5 1015.6 0.6
29/06:00am 12.3 10.2 11.0 92 0.7 NNE 13 15 7 8 1015.9 1016.0 0.6
29/05:30am 12.6 10.9 11.3 92 0.7 N 11 17 6 9 1016.1 1016.2 0.6
29/05:00am 12.6 10.6 11.5 93 0.6 NE 13 17 7 9 1016.3 1016.4 0.6
29/04:30am 12.6 10.5 11.3 92 0.7 NE 13 19 7 10 1016.4 1016.5 0.6
29/04:00am 12.7 10.0 11.6 93 0.6 NE 17 26 9 14 1016.6 1016.8 0.6
29/03:30am 12.5 10.6 11.7 95 0.4 NE 13 20 7 11 1017.2 1017.3 0.6
29/03:00am 12.5 10.9 11.7 95 0.4 NE 11 20 6 11 1017.6 1017.7 0.6
29/02:30am 12.5 10.9 11.6 94 0.5 NE 11 22 6 12 1017.7 1017.8 0.6
29/02:00am 12.3 10.3 11.5 95 0.4 NE 13 17 7 9 1017.9 1018.0 0.6
29/01:30am 12.3 10.7 11.4 94 0.5 ENE 11 19 6 10 1018.1 1018.2 0.6
29/01:00am 12.3 10.7 11.5 95 0.4 NE 11 19 6 10 1018.3 1018.4 0.6
29/12:30am 12.2 10.2 11.4 95 0.4 NE 13 20 7 11 1018.3 1018.4 0.6
29/12:00am 12.2 10.2 11.6 96 0.3 ENE 13 20 7 11 1018.2 1018.3 0.6
 
Date/Time
EST
Temp
°C
App
Temp
°C
Dew
Point
Rel
Hum
%
Delta-T
°C
Wind Press
QNH
hPa
Press
MSL
hPa
Rain
since 9 am
mm
Dir
 
Spd
km/h
Gust
km/h
Spd
kts
Gust
kts
28/11:30pm 12.2 11.0 11.7 97 0.3 NE 9 17 5 9 1018.4 1018.5 0.6
28/11:00pm 12.1 10.5 11.6 97 0.3 ENE 11 19 6 10 1018.6 1018.8 0.6
28/10:30pm 12.0 10.0 11.5 97 0.3 ENE 13 19 7 10 1018.7 1018.9 0.6
28/10:00pm 11.9 10.6 11.4 97 0.3 ENE 9 17 5 9 1019.0 1019.2 0.6
28/09:30pm 11.9 9.9 11.4 97 0.3 ENE 13 20 7 11 1018.9 1019.1 0.6
28/09:00pm 11.7 9.6 11.2 97 0.3 ENE 13 19 7 10 1019.0 1019.2 0.6
28/08:30pm 11.7 10.0 11.2 97 0.3 ENE 11 20 6 11 1018.8 1019.0 0.6
28/08:00pm 11.4 9.6 10.9 97 0.3 NE 11 20 6 11 1018.7 1018.9 0.6
28/07:30pm 11.7 10.4 11.2 97 0.3 NE 9 15 5 8 1018.6 1018.8 0.6
28/07:00pm 11.7 10.0 11.1 96 0.3 NE 11 20 6 11 1018.5 1018.7 0.6
28/06:30pm 11.8 10.5 11.2 96 0.3 ENE 9 17 5 9 1018.1 1018.2 0.6
28/06:00pm 12.0 10.5 10.7 92 0.7 NNE 9 17 5 9 1017.8 1017.9 0.6
28/05:30pm 12.9 11.2 11.1 89 1.0 NE 11 17 6 9 1017.4 1017.5 0.6
28/05:00pm 14.5 13.7 11.1 80 1.8 NE 6 11 3 6 1017.0 1017.1 0.6
28/04:30pm 15.2 14.1 10.0 71 2.8 ESE 6 7 3 4 1016.6 1016.8 0.6
28/04:00pm 15.0 13.8 10.2 73 2.6 ESE 7 9 4 5 1016.5 1016.6 0.6
28/03:30pm 15.2 14.2 10.4 73 2.6 E 6 9 3 5 1016.5 1016.6 0.6
28/03:00pm 14.8 13.8 10.4 75 2.4 E 6 9 3 5 1016.6 1016.8 0.6
28/02:30pm 14.6 13.7 10.6 77 2.2 E 6 9 3 5 1016.4 1016.5 0.6
28/02:00pm 13.5 13.5 11.0 85 1.3 SE 2 7 1 4 1016.3 1016.4 0.6
28/01:30pm 12.6 11.3 11.3 92 0.7 S 9 11 5 6 1016.5 1016.6 0.6
28/01:00pm 12.2 10.5 11.3 94 0.5 S 11 17 6 9 1016.3 1016.4 0.6
28/12:30pm 12.4 9.7 11.6 95 0.4 SW 17 24 9 13 1016.2 1016.3 0.6
28/12:00pm 12.4 9.1 11.5 94 0.5 SSW 20 26 11 14 1015.9 1016.0 0.6
28/11:30am 13.8 12.4 12.2 90 0.9 SSW 11 17 6 9 1015.5 1015.6 0.6
28/11:00am 15.5 15.3 13.5 88 1.1 NW 7 11 4 6 1015.4 1015.5 0.2
28/10:30am 15.4 13.2 12.2 81 1.8 N 15 22 8 12 1015.3 1015.4 0.0
28/10:00am 15.9 12.9 11.9 77 2.2 NNW 19 24 10 13 1015.2 1015.3 0.0
28/09:30am 15.9 12.9 12.1 78 2.1 N 19 24 10 13 1015.1 1015.2 0.0
28/09:00am 14.9 12.4 12.4 85 1.4 N 17 22 9 12 1015.3 1015.4 0.2
28/08:30am 14.5 12.4 12.4 87 1.2 NNE 15 19 8 10 1014.8 1014.9 0.2
28/08:00am 13.3 12.4 11.2 87 1.1 NNE 7 11 4 6 1014.5 1014.6 0.2
28/07:30am 13.0 11.3 11.1 88 1.0 NNE 11 15 6 8 1014.3 1014.4 0.2
28/07:00am 13.4 10.6 11.5 88 1.0 N 17 20 9 11 1013.7 1013.8 0.2
28/06:30am 13.9 10.2 11.6 86 1.3 N 22 30 12 16 1013.3 1013.4 0.2
28/06:00am 13.7 11.3 11.4 86 1.3 N 15 20 8 11 1013.5 1013.6 0.2
28/05:30am 13.7 12.4 11.4 86 1.3 ENE 9 13 5 7 1013.5 1013.6 0.2
28/05:00am 14.0 12.3 11.3 84 1.5 N 11 17 6 9 1013.3 1013.4 0.2
28/04:30am 13.8 10.9 11.1 84 1.5 N 17 28 9 15 1013.1 1013.2 0.2
28/04:00am 13.9 11.8 11.1 83 1.5 N 13 24 7 13 1013.3 1013.4 0.2
28/03:30am 14.1 11.2 11.1 82 1.6 N 17 26 9 14 1013.4 1013.5 0.2
28/03:00am 14.2 10.4 11.2 82 1.6 N 22 41 12 22 1013.3 1013.4 0.2
28/02:30am 14.2 10.8 11.2 82 1.6 NNE 20 32 11 17 1013.4 1013.5 0.2
28/02:00am 14.1 10.6 10.9 81 1.7 NNE 20 32 11 17 1013.5 1013.6 0.2
28/01:30am 14.2 10.8 10.6 79 1.9 NNE 19 26 10 14 1013.6 1013.7 0.2
28/01:00am 14.8 11.8 10.8 77 2.2 NNE 17 24 9 13 1013.6 1013.7 0.2
28/12:30am 15.0 12.0 10.8 76 2.3 NNE 17 24 9 13 1013.7 1013.8 0.2
28/12:00am 14.8 11.5 10.8 77 2.2 NNE 19 28 10 15 1013.6 1013.7 0.2
 
Date/Time
EST
Temp
°C
App
Temp
°C
Dew
Point
Rel
Hum
%
Delta-T
°C
Wind Press
QNH
hPa
Press
MSL
hPa
Rain
since 9 am
mm
Dir
 
Spd
km/h
Gust
km/h
Spd
kts
Gust
kts
27/11:30pm 14.3 10.9 11.1 81 1.7 NNE 20 28 11 15 1013.7 1013.8 0.2
27/11:00pm 14.2 10.0 11.2 82 1.6 N 24 37 13 20 1013.9 1014.0 0.2
27/10:30pm 14.0 9.8 11.2 83 1.5 NNE 24 33 13 18 1014.0 1014.1 0.2
27/10:00pm 14.0 10.2 11.0 82 1.6 N 22 30 12 16 1014.3 1014.4 0.2
27/09:30pm 14.3 10.9 11.1 81 1.7 N 20 30 11 16 1014.1 1014.2 0.2
27/09:00pm 14.4 9.8 11.0 80 1.8 N 26 37 14 20 1014.2 1014.3 0.2
27/08:30pm 14.7 10.0 10.7 77 2.2 N 26 39 14 21 1014.2 1014.3 0.2
27/08:00pm 14.9 9.7 10.3 74 2.5 N 28 39 15 21 1014.3 1014.4 0.2
27/07:30pm 15.3 9.3 10.1 71 2.8 N 32 43 17 23 1014.2 1014.3 0.2
27/07:00pm 15.6 10.2 9.5 67 3.2 N 28 39 15 21 1014.2 1014.3 0.2
27/06:30pm 15.7 9.9 9.4 66 3.3 N 30 39 16 21 1014.1 1014.2 0.2
27/06:00pm 16.0 10.1 9.2 64 3.6 N 30 44 16 24 1013.7 1013.8 0.2
27/05:30pm 16.6 10.7 9.1 61 4.0 N 30 39 16 21 1013.4 1013.5 0.2
27/05:00pm 17.5 12.4 9.2 58 4.4 N 26 35 14 19 1013.1 1013.2 0.2
27/04:30pm 18.0 12.5 9.1 56 4.7 N 28 37 15 20 1013.1 1013.2 0.2
27/04:00pm 17.5 12.3 8.9 57 4.6 N 26 37 14 20 1013.1 1013.2 0.2
27/03:30pm 17.2 11.3 8.9 58 4.4 N 30 41 16 22 1013.1 1013.2 0.2
27/03:00pm 17.5 12.2 8.6 56 4.7 N 26 39 14 21 1013.2 1013.3 0.2
27/02:30pm 18.1 12.8 8.4 53 5.1 N 26 35 14 19 1013.3 1013.4 0.2
27/02:00pm 18.1 11.7 8.7 54 5.0 N 32 44 17 24 1013.5 1013.6 0.2
27/01:40pm 17.8 10.9 8.9 56 4.7 N 35 54 19 29 1013.5 1013.6 0.2
27/01:30pm 17.7 10.4 8.8 56 4.7 N 37 48 20 26 1013.6 1013.7 0.2
27/01:00pm 17.3 9.5 8.4 56 4.7 N 39 50 21 27 1014.0 1014.1 0.2
27/12:30pm 17.1 9.4 8.5 57 4.5 N 39 50 21 27 1014.3 1014.4 0.2
27/12:00pm 16.4 11.6 10.3 67 3.3 N 26 35 14 19 1015.2 1015.3 0.2
27/11:30am 15.3 9.2 10.3 72 2.7 N 33 46 18 25 1015.8 1015.9 0.2
27/11:00am 15.0 9.5 10.6 75 2.4 N 30 41 16 22 1016.2 1016.3 0.2
27/10:30am 14.8 9.4 11.0 78 2.1 N 30 43 16 23 1016.5 1016.6 0.0
27/10:00am 14.1 8.9 10.3 78 2.0 N 28 41 15 22 1017.2 1017.3 0.0
27/09:30am 14.6 10.9 10.0 74 2.4 N 20 30 11 16 1017.7 1017.8 0.0
27/09:00am 13.8 9.3 10.0 78 2.0 N 24 35 13 19 1017.7 1017.8 0.0
27/08:30am 13.2 7.1 9.8 80 1.8 N 32 41 17 22 1017.9 1018.0 0.0
27/08:00am 13.3 8.0 9.7 79 1.9 N 28 39 15 21 1018.1 1018.2 0.0
27/07:30am 12.2 7.2 9.6 84 1.4 N 26 39 14 21 1018.1 1018.2 0.0
27/07:00am 12.0 6.6 9.4 84 1.3 N 28 35 15 19 1018.1 1018.2 0.0
27/06:30am 11.9 6.8 9.1 83 1.4 N 26 35 14 19 1018.1 1018.2 0.0
27/06:00am 11.7 8.1 8.4 80 1.7 N 17 22 9 12 1018.3 1018.4 0.0
27/05:30am 10.7 7.2 8.6 87 1.1 N 17 26 9 14 1018.5 1018.7 0.0
27/05:00am 10.4 8.0 8.5 88 1.0 N 11 17 6 9 1018.6 1018.8 0.0
27/04:30am 11.3 6.7 8.3 82 1.5 N 22 28 12 15 1018.7 1018.9 0.0
27/04:00am 11.9 7.3 8.2 78 1.9 N 22 32 12 17 1018.9 1019.1 0.0

Other Formats:

Comma delimited format used in spreadsheet applications
http://www.bom.gov.au/fwo/IDT60801/IDT60801.94960.axf

JavaScript Object Notation format (JSON) in row-major order
http://www.bom.gov.au/fwo/IDT60801/IDT60801.94960.json